createdAt,value
2018-03-20T00:00:39.806Z,76.73
2018-03-20T00:03:45.101Z,76.65
2018-03-20T00:06:50.474Z,76.64
2018-03-20T00:09:56.033Z,76.61
2018-03-20T00:13:01.598Z,76.69
2018-03-20T00:16:07.114Z,76.90
2018-03-20T00:19:12.667Z,76.95
2018-03-20T00:22:18.197Z,76.81
2018-03-20T00:25:23.517Z,76.79
2018-03-20T00:28:43.647Z,77.01
2018-03-20T00:35:40.664Z,77.00
2018-03-20T00:38:53.941Z,77.11
2018-03-20T00:42:05.782Z,77.70
2018-03-20T00:45:20.247Z,77.56
2018-03-20T00:48:32.540Z,77.99
2018-03-20T00:51:46.335Z,78.01
2018-03-20T00:54:56.661Z,78.33
2018-03-20T00:58:06.269Z,78.00
2018-03-20T01:01:15.085Z,78.68
2018-03-20T01:04:22.934Z,78.38
2018-03-20T01:07:29.925Z,78.24
2018-03-20T01:10:37.969Z,78.37
2018-03-20T01:13:43.902Z,78.32
2018-03-20T01:16:50.067Z,78.59
2018-03-20T01:19:55.557Z,78.57
2018-03-20T01:23:01.106Z,78.53
2018-03-20T01:26:06.609Z,78.58
2018-03-20T01:29:12.185Z,78.85
2018-03-20T01:32:17.707Z,78.93
2018-03-20T01:35:23.279Z,78.81
2018-03-20T01:38:28.799Z,78.98
2018-03-20T01:41:34.357Z,78.61
2018-03-20T01:44:40.369Z,78.75
2018-03-20T01:47:45.957Z,78.81
2018-03-20T01:50:51.508Z,78.87
2018-03-20T01:53:57.054Z,79.13
2018-03-20T01:57:02.373Z,78.96
2018-03-20T02:00:07.986Z,78.87
2018-03-20T02:03:13.568Z,79.28
2018-03-20T02:06:19.126Z,79.24
2018-03-20T02:09:24.637Z,79.47
2018-03-20T02:12:30.560Z,78.99
2018-03-20T02:15:36.083Z,79.15
2018-03-20T02:18:41.355Z,79.58
2018-03-20T02:21:46.914Z,79.22
2018-03-20T02:24:52.487Z,79.27
2018-03-20T02:27:58.007Z,79.65
2018-03-20T02:31:03.569Z,79.52
2018-03-20T02:34:09.107Z,79.63
2018-03-20T02:37:14.959Z,79.31
2018-03-20T02:40:20.543Z,79.37
2018-03-20T02:43:26.183Z,79.50
2018-03-20T02:46:35.643Z,79.33
2018-03-20T02:49:41.169Z,79.76
2018-03-20T02:52:46.726Z,79.48
2018-03-20T02:55:52.283Z,79.73
2018-03-20T02:58:57.823Z,79.48
2018-03-20T03:02:03.446Z,79.72
2018-03-20T03:05:08.992Z,79.63
2018-03-20T03:08:14.545Z,79.54
2018-03-20T03:11:20.156Z,79.62
2018-03-20T03:14:25.682Z,79.71
2018-03-20T03:17:31.240Z,79.45
2018-03-20T03:20:36.794Z,79.55
2018-03-20T03:23:42.305Z,79.71
2018-03-20T03:26:47.865Z,79.89
2018-03-20T03:29:53.374Z,79.85
2018-03-20T03:32:58.952Z,79.94
2018-03-20T03:36:04.517Z,80.37
2018-03-20T03:39:10.064Z,80.44
2018-03-20T03:42:15.642Z,80.25
2018-03-20T03:45:21.194Z,80.76
2018-03-20T03:48:29.331Z,81.35
2018-03-20T03:51:34.880Z,81.29
2018-03-20T03:54:40.046Z,81.29
2018-03-20T03:57:45.320Z,81.10
2018-03-20T04:00:50.894Z,80.98
2018-03-20T04:03:56.417Z,81.22
2018-03-20T04:07:01.974Z,81.06
2018-03-20T04:10:07.518Z,81.15
2018-03-20T04:13:13.149Z,81.16
2018-03-20T04:16:18.702Z,81.00
2018-03-20T04:19:24.070Z,81.19
2018-03-20T04:22:29.634Z,81.53
2018-03-20T04:25:35.146Z,81.10
2018-03-20T04:28:40.814Z,80.99
2018-03-20T04:31:46.379Z,81.31
2018-03-20T04:34:51.934Z,81.30
2018-03-20T04:37:57.502Z,80.96
2018-03-20T04:41:03.071Z,80.86
2018-03-20T04:44:08.602Z,80.67
2018-03-20T04:47:14.163Z,80.93
2018-03-20T04:50:19.674Z,81.07
2018-03-20T04:53:25.227Z,80.93
2018-03-20T04:56:30.728Z,80.70
2018-03-20T04:59:37.725Z,80.89
2018-03-20T05:02:43.292Z,80.92
2018-03-20T05:05:49.030Z,80.53
2018-03-20T05:08:55.097Z,80.52
2018-03-20T05:12:00.839Z,80.89
2018-03-20T05:15:06.399Z,80.83
2018-03-20T05:18:11.802Z,80.76
2018-03-20T05:21:23.968Z,80.49
2018-03-20T05:24:29.510Z,80.52
2018-03-20T05:27:34.874Z,80.66
2018-03-20T05:30:40.268Z,80.47
2018-03-20T05:33:45.671Z,80.26
2018-03-20T05:36:55.987Z,80.29
2018-03-20T05:40:01.366Z,80.12
2018-03-20T05:43:07.858Z,79.94
2018-03-20T05:46:23.924Z,80.15
2018-03-20T05:53:08.586Z,79.92
2018-03-20T05:56:14.163Z,80.10
2018-03-20T05:59:19.692Z,80.11
2018-03-20T06:02:25.298Z,80.21
2018-03-20T06:05:30.533Z,80.38
2018-03-20T06:08:36.141Z,80.10
2018-03-20T06:11:41.799Z,80.27
2018-03-20T06:14:47.318Z,80.31
2018-03-20T06:17:52.881Z,80.24
2018-03-20T06:20:58.381Z,80.15
2018-03-20T06:24:03.994Z,80.15
2018-03-20T06:27:09.494Z,80.12
2018-03-20T06:30:15.299Z,80.10
2018-03-20T06:33:20.817Z,80.22
2018-03-20T06:36:26.382Z,80.07
2018-03-20T06:39:31.894Z,80.01
2018-03-20T06:42:37.424Z,80.29
2018-03-20T06:45:42.940Z,80.10
2018-03-20T06:48:48.486Z,80.05
2018-03-20T06:51:53.989Z,80.03
2018-03-20T06:54:59.547Z,80.10
2018-03-20T06:58:05.128Z,80.23
2018-03-20T07:01:10.671Z,80.11
2018-03-20T07:04:16.206Z,80.06
2018-03-20T07:07:21.752Z,80.16
2018-03-20T07:10:30.549Z,80.25
2018-03-20T07:13:36.107Z,80.14
2018-03-20T07:16:41.679Z,80.00
2018-03-20T07:19:47.250Z,80.30
2018-03-20T07:22:52.762Z,80.05
2018-03-20T07:25:58.353Z,80.00
2018-03-20T07:29:03.895Z,80.04
2018-03-20T07:32:09.474Z,80.08
2018-03-20T07:35:15.064Z,80.18
2018-03-20T07:38:20.629Z,80.12
2018-03-20T07:41:26.202Z,80.07
2018-03-20T07:44:31.765Z,80.23
2018-03-20T07:47:37.389Z,80.17
2018-03-20T07:50:42.972Z,79.97
2018-03-20T07:53:48.482Z,80.09
2018-03-20T07:56:54.067Z,79.68
2018-03-20T07:59:59.577Z,79.70
2018-03-20T08:03:05.116Z,79.66
2018-03-20T08:06:10.387Z,79.59
2018-03-20T08:09:15.950Z,79.52
2018-03-20T08:12:21.556Z,79.60
2018-03-20T08:15:27.110Z,79.42
2018-03-20T08:18:32.630Z,79.57
2018-03-20T08:21:38.202Z,79.51
2018-03-20T08:24:43.716Z,79.43
2018-03-20T08:27:49.294Z,79.64
2018-03-20T08:30:54.850Z,79.70
2018-03-20T08:34:00.444Z,79.01
2018-03-20T08:37:06.018Z,78.95
2018-03-20T08:40:11.579Z,78.61
2018-03-20T08:43:17.098Z,79.21
2018-03-20T08:46:22.651Z,78.58
2018-03-20T08:49:28.353Z,78.85
2018-03-20T08:52:34.021Z,78.68
2018-03-20T08:55:39.842Z,78.29
2018-03-20T08:58:45.431Z,78.18
2018-03-20T09:01:51.011Z,78.25
2018-03-20T09:04:56.569Z,77.99
2018-03-20T09:08:02.090Z,78.16
2018-03-20T09:11:07.644Z,77.74
2018-03-20T09:14:13.173Z,77.81
2018-03-20T09:17:18.729Z,77.42
2018-03-20T09:20:24.257Z,77.38
2018-03-20T09:23:29.821Z,77.43
2018-03-20T09:26:35.381Z,77.44
2018-03-20T09:29:40.949Z,77.66
2018-03-20T09:32:46.469Z,77.80
2018-03-20T09:35:52.026Z,77.81
2018-03-20T09:39:01.000Z,77.59
2018-03-20T09:42:06.344Z,77.51
2018-03-20T09:45:11.850Z,77.77
2018-03-20T09:48:17.446Z,78.03
2018-03-20T09:51:22.950Z,77.52
2018-03-20T09:54:28.574Z,77.03
2018-03-20T09:57:34.127Z,77.05
2018-03-20T10:00:39.700Z,76.69
2018-03-20T10:03:45.233Z,76.72
2018-03-20T10:06:50.792Z,76.44
2018-03-20T10:09:56.325Z,76.77
2018-03-20T10:13:01.881Z,75.94
2018-03-20T10:16:07.390Z,75.83
2018-03-20T10:19:13.048Z,75.45
2018-03-20T10:22:18.555Z,75.14
2018-03-20T10:25:24.138Z,74.85
2018-03-20T10:28:29.653Z,75.60
2018-03-20T10:31:35.209Z,75.83
2018-03-20T10:34:40.777Z,74.92
2018-03-20T10:37:46.347Z,75.34
2018-03-20T10:40:51.860Z,74.69
2018-03-20T10:43:57.538Z,75.22
2018-03-20T10:47:03.073Z,74.51
2018-03-20T10:50:08.709Z,74.55
2018-03-20T10:53:14.259Z,74.85
2018-03-20T10:56:19.826Z,74.68
2018-03-20T10:59:25.384Z,74.31
2018-03-20T11:02:31.949Z,73.99
2018-03-20T11:05:37.471Z,74.55
2018-03-20T11:08:43.023Z,73.00
2018-03-20T11:11:48.522Z,72.68
2018-03-20T11:14:53.882Z,73.52
2018-03-20T11:17:59.442Z,72.81
2018-03-20T11:21:04.958Z,73.76
2018-03-20T11:24:10.534Z,73.18
2018-03-20T11:27:16.100Z,73.92
2018-03-20T11:30:21.603Z,72.58
2018-03-20T11:33:27.161Z,72.67
2018-03-20T11:36:34.402Z,72.01
2018-03-20T11:39:39.965Z,74.14
2018-03-20T11:42:45.466Z,74.07
2018-03-20T11:45:51.030Z,72.54
2018-03-20T11:48:56.590Z,73.98
2018-03-20T11:52:02.113Z,73.03
2018-03-20T11:55:07.675Z,72.41
2018-03-20T11:58:13.256Z,73.26
2018-03-20T12:01:18.815Z,71.37
2018-03-20T12:04:24.141Z,72.94
2018-03-20T12:07:29.669Z,73.05
2018-03-20T12:10:35.703Z,72.50
2018-03-20T12:13:55.781Z,72.44
2018-03-20T12:17:01.311Z,71.51
2018-03-20T12:20:06.889Z,72.29
2018-03-20T12:23:12.432Z,72.83
2018-03-20T12:26:17.914Z,73.06
2018-03-20T12:29:23.459Z,72.42
2018-03-20T12:32:28.972Z,73.12
2018-03-20T12:35:34.566Z,72.85
2018-03-20T12:38:40.993Z,71.22
2018-03-20T12:41:46.618Z,70.52
2018-03-20T12:44:52.160Z,71.96
2018-03-20T12:47:57.715Z,71.99
2018-03-20T12:51:03.204Z,72.22
2018-03-20T12:54:08.773Z,72.94
2018-03-20T12:57:14.366Z,71.97
2018-03-20T13:00:19.904Z,72.31
2018-03-20T13:03:25.405Z,72.99
2018-03-20T13:06:30.697Z,72.42
2018-03-20T13:09:36.187Z,72.00
2018-03-20T13:12:41.753Z,72.28
2018-03-20T13:15:47.254Z,71.53
2018-03-20T13:18:52.781Z,71.15
2018-03-20T13:21:58.552Z,71.49
2018-03-20T13:25:04.089Z,71.31
2018-03-20T13:28:09.621Z,71.98
2018-03-20T13:31:22.485Z,70.88
2018-03-20T13:34:28.815Z,70.70
2018-03-20T13:37:34.368Z,70.61
2018-03-20T13:40:40.292Z,69.79
2018-03-20T13:43:45.867Z,70.91
2018-03-20T13:46:51.725Z,71.42
2018-03-20T13:49:57.326Z,70.74
2018-03-20T13:53:02.866Z,70.17
2018-03-20T13:56:08.602Z,70.75
2018-03-20T13:59:14.107Z,70.79
2018-03-20T14:02:19.658Z,69.24
2018-03-20T14:05:25.220Z,69.54
2018-03-20T14:08:30.764Z,68.91
2018-03-20T14:11:36.258Z,69.98
2018-03-20T14:14:41.812Z,70.03
2018-03-20T14:17:50.486Z,69.76
2018-03-20T14:20:56.029Z,70.72
2018-03-20T14:24:01.531Z,68.29
2018-03-20T14:27:07.098Z,70.43
2018-03-20T14:30:12.596Z,68.57
2018-03-20T14:33:18.164Z,70.01
2018-03-20T14:36:23.670Z,70.40
2018-03-20T14:39:28.956Z,70.47
2018-03-20T14:42:34.449Z,69.30
2018-03-20T14:45:39.977Z,69.55
2018-03-20T14:48:45.612Z,68.98
2018-03-20T14:51:51.161Z,67.90
2018-03-20T14:54:56.714Z,69.61
2018-03-20T14:58:02.202Z,68.42
2018-03-20T15:01:07.601Z,68.67
2018-03-20T15:04:13.161Z,67.91
2018-03-20T15:07:18.726Z,68.20
2018-03-20T15:10:24.618Z,68.78
2018-03-20T15:13:30.196Z,68.20
2018-03-20T15:16:35.692Z,66.87
2018-03-20T15:19:41.221Z,67.08
2018-03-20T15:22:46.777Z,66.73
2018-03-20T15:25:52.309Z,68.11
2018-03-20T15:28:59.101Z,68.61
2018-03-20T15:32:04.649Z,68.05
2018-03-20T15:35:10.274Z,66.68
2018-03-20T15:38:15.769Z,66.58
2018-03-20T15:41:23.401Z,65.88
2018-03-20T15:44:28.890Z,67.79
2018-03-20T15:47:36.918Z,65.60
2018-03-20T15:50:43.661Z,66.41
2018-03-20T15:53:49.149Z,66.69
2018-03-20T15:56:54.689Z,65.90
2018-03-20T16:00:00.315Z,65.50
2018-03-20T16:03:05.880Z,66.26
2018-03-20T16:06:11.421Z,66.22
2018-03-20T16:09:20.539Z,63.93
2018-03-20T16:12:37.825Z,66.09
2018-03-20T16:15:49.045Z,65.33
2018-03-20T16:19:02.314Z,66.46
2018-03-20T16:22:18.294Z,65.86
2018-03-20T16:25:42.249Z,64.54
2018-03-20T16:28:54.581Z,66.26
2018-03-20T16:32:00.078Z,66.23
2018-03-20T16:35:07.828Z,64.58
2018-03-20T16:38:14.739Z,65.07
2018-03-20T16:41:23.212Z,66.03
2018-03-20T16:44:29.224Z,67.53
2018-03-20T16:47:34.770Z,68.90
2018-03-20T16:50:40.253Z,68.44
2018-03-20T16:53:47.136Z,68.93
2018-03-20T16:56:58.184Z,68.42
2018-03-20T17:00:05.814Z,68.72
2018-03-20T17:03:15.121Z,69.39
2018-03-20T17:06:23.793Z,68.37
2018-03-20T17:09:34.462Z,66.63
2018-03-20T17:12:44.722Z,66.00
2018-03-20T17:15:53.571Z,65.38
2018-03-20T17:19:07.637Z,63.77
2018-03-20T17:22:18.543Z,65.70
2018-03-20T17:25:24.083Z,63.65
2018-03-20T17:28:34.426Z,64.12
2018-03-20T17:31:42.310Z,64.62
2018-03-20T17:34:51.244Z,65.69
2018-03-20T17:37:57.326Z,64.08
2018-03-20T17:41:03.605Z,64.95
2018-03-20T17:44:09.514Z,65.87
2018-03-20T17:47:15.794Z,65.01
2018-03-20T17:50:23.263Z,66.93
2018-03-20T17:53:29.851Z,67.01
2018-03-20T17:56:35.612Z,66.81
2018-03-20T17:59:43.650Z,67.97
2018-03-20T18:02:49.732Z,67.69
2018-03-20T18:05:57.598Z,68.25
2018-03-20T18:09:03.608Z,68.69
2018-03-20T18:12:09.171Z,68.96
2018-03-20T18:15:14.704Z,69.16
2018-03-20T18:18:20.205Z,69.16
2018-03-20T18:21:26.079Z,70.25
2018-03-20T18:24:32.559Z,69.55
2018-03-20T18:27:38.816Z,70.32
2018-03-20T18:30:44.371Z,70.17
2018-03-20T18:33:49.869Z,69.73
2018-03-20T18:36:55.439Z,70.16
2018-03-20T18:40:00.943Z,70.60
2018-03-20T18:43:06.486Z,70.70
2018-03-20T18:46:11.986Z,70.89
2018-03-20T18:49:17.517Z,71.12
2018-03-20T18:52:23.121Z,71.07
2018-03-20T18:55:28.759Z,70.99
2018-03-20T18:58:35.213Z,71.41
2018-03-20T19:01:44.360Z,71.77
2018-03-20T19:04:54.142Z,71.47
2018-03-20T19:08:10.344Z,72.03
2018-03-20T19:11:29.566Z,72.13
2018-03-20T19:14:48.593Z,72.54
2018-03-20T19:18:07.601Z,72.34
2018-03-20T19:21:23.267Z,72.82
2018-03-20T19:24:50.108Z,72.79
2018-03-20T19:28:11.494Z,72.72
2018-03-20T19:31:30.921Z,72.90
2018-03-20T19:34:49.210Z,73.17
2018-03-20T19:38:07.101Z,72.90
2018-03-20T19:41:32.896Z,73.17
2018-03-20T19:44:58.584Z,72.80
2018-03-20T19:48:13.574Z,73.09
2018-03-20T19:51:29.550Z,73.24
2018-03-20T19:54:45.947Z,73.13
2018-03-20T19:58:05.603Z,73.19
2018-03-20T20:01:31.907Z,73.38
2018-03-20T20:04:51.781Z,73.42
2018-03-20T20:08:08.357Z,73.40
2018-03-20T20:11:29.474Z,73.40
2018-03-20T20:14:56.998Z,73.73
2018-03-20T20:18:16.730Z,73.73
2018-03-20T20:21:33.257Z,73.93
2018-03-20T20:25:06.303Z,73.94
2018-03-20T20:28:30.482Z,73.80
2018-03-20T20:31:47.812Z,73.96
2018-03-20T20:35:23.122Z,74.32
2018-03-20T20:38:52.332Z,73.89
2018-03-20T20:42:07.365Z,74.30
2018-03-20T20:48:52.174Z,74.74
2018-03-20T20:52:12.303Z,74.87
2018-03-20T20:55:37.667Z,74.87
2018-03-20T20:59:00.043Z,74.80
2018-03-20T21:02:26.727Z,75.00
2018-03-20T21:06:02.277Z,75.24
2018-03-20T21:09:33.991Z,75.34
2018-03-20T21:13:03.611Z,75.29
2018-03-20T21:16:25.372Z,75.26
2018-03-20T21:19:45.420Z,75.22
2018-03-20T21:23:05.125Z,75.51
2018-03-20T21:26:34.782Z,75.65
2018-03-20T21:30:08.679Z,75.39
2018-03-20T21:33:26.123Z,75.71
2018-03-20T21:36:40.264Z,75.68
2018-03-20T21:39:48.481Z,75.66
2018-03-20T21:42:54.020Z,76.00
2018-03-20T21:45:59.686Z,76.13
2018-03-20T21:49:05.024Z,76.20
2018-03-20T21:52:10.281Z,76.14
2018-03-20T21:55:15.849Z,76.15
2018-03-20T21:58:21.139Z,76.39
2018-03-20T22:01:26.404Z,76.45
2018-03-20T22:04:31.689Z,76.63
2018-03-20T22:07:37.085Z,76.45
2018-03-20T22:10:42.575Z,76.43
2018-03-20T22:13:47.849Z,76.48
2018-03-20T22:16:53.078Z,76.28
2018-03-20T22:19:58.354Z,76.41
2018-03-20T22:23:03.590Z,76.20
2018-03-20T22:26:08.852Z,76.59
2018-03-20T22:29:14.112Z,76.51
2018-03-20T22:32:19.664Z,76.51
2018-03-20T22:35:25.303Z,76.62
2018-03-20T22:38:30.809Z,76.70
2018-03-20T22:41:36.084Z,76.79
2018-03-20T22:44:41.572Z,76.68
2018-03-20T22:47:46.845Z,76.71
2018-03-20T22:50:52.068Z,76.83
2018-03-20T22:53:57.328Z,77.14
2018-03-20T22:57:02.559Z,76.90
2018-03-20T23:00:07.316Z,77.18
2018-03-20T23:03:12.391Z,77.01
2018-03-20T23:06:17.688Z,76.96
2018-03-20T23:09:22.954Z,76.93
2018-03-20T23:12:28.220Z,77.04
2018-03-20T23:15:33.463Z,77.07
2018-03-20T23:18:38.738Z,76.92
2018-03-20T23:21:44.236Z,77.12
2018-03-20T23:24:49.799Z,77.20
2018-03-20T23:27:55.024Z,77.17
2018-03-20T23:31:00.614Z,77.17
2018-03-20T23:34:06.027Z,77.42
2018-03-20T23:37:11.289Z,77.31
2018-03-20T23:40:16.794Z,77.31
2018-03-20T23:43:22.046Z,77.45
2018-03-20T23:46:27.317Z,77.41
2018-03-20T23:49:32.529Z,77.43
2018-03-20T23:52:37.870Z,77.21
2018-03-20T23:55:42.788Z,77.20
2018-03-20T23:58:48.050Z,77.16
